Startpagina
METAR-TAF:

METAR-TAF

Vliegvelden :

Kashgar, China

breedte: 39-28N, lengte: 075-59E, hoogte: 1291 m

Actueel weer

Dit bericht is 40 minuten geleden gemaakt, om 00:00 UTC
Wind 6 kt uit het westnoordwesten
Temperatuur -3°C
Vochtigheid 68%
Druk 1019 hPa
Zicht: 9000 m

METAR: ZWSH 220000Z 30003MPS 9000 NSC M03/M08 Q1019 NOSIG

Tijdstip: 08:40 (00:40 UTC)

Verwachting

Dit bericht is 3 uur en het 38 minuten geleden gemaakt, om 21:02 UTC
Verwachting geldig van 22 om 00 UTC tot 22 om 24 UTC
Wind 8 kt uit het noordwesten
Zicht 10 km of meer
geen wolken onder 1500 m en geen cumulonimbus
Wijzigt naar
van 22 om 04 UTC tot 22 om 05 UTC
Wind 6 kt uit het oosten
Wijzigt naar
van 22 om 14 UTC tot 22 om 15 UTC
Wind 8 kt uit het noordwesten

TAF: ZWSH 212102Z 2200/2224 32004MPS CAVOK TX06/2209Z TNM03/00Z BECMG 2204/2205 09003MPS BECMG 2214/2215 32004MPS

Waarnemingen en weersverwachtingen van meer dan 4000 vliegvelden (METAR en TAF).

De beschikbare stations zijn de gele en rode punten op de kaart.

Ga met uw muis naar het station om de naam te zien.

Klik dan om waarnemingen en weersverwachtingen te zien.

kaart wijzigen: klik op de groene knoppen met een zwart kruis om in te zoomen, op de groene knop met een streepje om uit te zoomen of op de groene pijlen voor aangrenzende kaarten.


METAR-TAF: